• Join FlightAware (Why Join?)
  • Login
  • US Flag 
02:52PM EDT


 

Airport Tracker/Info


-or-


 

Live Flight TrackerFlight Track Log ✈ ACA831 ✈ 09-Aug-2013 ✈ CYUL - CYYZ

Flight Track Log - Related Links

Times and Time Zones

All times are in EDT time to prevent confusion due to time zone crossing. See the ACA831 flight status page for this flight to view local times or setup timezone preferences in your user account.

Time Position Orientation Groundspeed Altitude Reporting Facility
EDT Latitude Longitude Course Direction KTS MPH feet Rate Location/Type
04:29PM 45.4740 -73.7200 90° East 94 108  Level FlightAware
04:29PM 45.4660 -73.7300 221° Southwest 170 196 2,160 Level FlightAware
04:30PM 45.4530 -73.7480 224° Southwest 160 184 1,500 3,660 Climbing FlightAware
04:30PM 45.4450 -73.7590 224° Southwest 176 203 2,200 2,700 Climbing FlightAware
04:30PM 45.4340 -73.7720 220° Southwest 178 205 3,100 2,760 Climbing FlightAware
04:30PM 45.4180 -73.7930 223° Southwest 219 252 4,000 2,760 Climbing FlightAware
04:31PM 45.4130 -73.8060 241° Southwest 229 264 4,500 3,060 Climbing FlightAware
04:31PM 45.4070 -73.8380 255° West 253 291 5,600 3,600 Climbing FlightAware
04:31PM 45.4020 -73.8720 258° West 263 303 6,900 4,200 Climbing FlightAware
04:31PM 45.4010 -73.8890 265° West 265 305 7,700 4,560 Climbing FlightAware
04:32PM 45.4020 -73.9240 272° West 269 310 9,200 3,960 Climbing FlightAware
04:32PM 45.4030 -73.9850 271° West 292 336 11,300 2,820 Climbing FlightAware
04:33PM 45.4060 -74.0610 273° West 344 396 12,500 2,940 Climbing FlightAware
04:34PM 45.4080 -74.1420 272° West 358 412 14,800 4,020 Climbing FlightAware
04:34PM 45.4110 -74.2240 273° West 360 414 17,200 3,720 Climbing FlightAware
04:35PM 45.4130 -74.3090 272° West 371 427 19,200 3,240 Climbing FlightAware
04:35PM 45.4160 -74.3950 273° West 380 437 21,000 3,060 Climbing FlightAware
04:36PM 45.4080 -74.4820 263° West 384 442 22,900 3,060 Climbing FlightAware
04:36PM 45.3940 -74.5690 257° West 387 445 24,600 2,880 Climbing FlightAware
04:37PM 45.3790 -74.6540 256° West 396 456 26,200 2,640 Climbing FlightAware
04:38PM 45.3630 -74.7470 256° West 402 463 27,700 2,280 Climbing FlightAware
04:38PM 45.3480 -74.8350 256° West 414 476 28,900 2,100 Climbing FlightAware
04:39PM 45.3330 -74.9280 257° West 419 482 30,200 2,820 Climbing FlightAware
04:39PM 45.3170 -75.0160 256° West 398 458 32,200 3,000 Climbing FlightAware
04:40PM 45.3020 -75.1060 257° West 391 450 33,700 1,500 Climbing FlightAware
04:41PM 45.2870 -75.1920 256° West 404 465 34,000 240 Climbing FlightAware
04:41PM 45.2710 -75.2860 256° West 406 467 34,000  Level FlightAware
04:42PM 45.2550 -75.3740 256° West 396 456 34,000  Level FlightAware
04:42PM 45.2400 -75.4610 256° West 388 447 34,000  Level FlightAware
04:43PM 45.2250 -75.5440 256° West 382 440 34,000  Level FlightAware
04:44PM 45.2090 -75.6330 256° West 383 441 34,000  Level FlightAware
04:44PM 45.1930 -75.7200 255° West 384 442 34,000  Level FlightAware
04:45PM 45.1790 -75.8020 256° West 385 443 34,000  Level FlightAware
04:45PM 45.1630 -75.8900 256° West 389 448 34,000  Level FlightAware
04:46PM 45.1470 -75.9780 256° West 390 449 34,000  Level FlightAware
04:46PM 45.1340 -76.0490 255° West 391 450 34,000  Level FlightAware
04:47PM 45.1200 -76.1250 255° West 392 451 34,000  Level FlightAware
04:48PM 45.0960 -76.2360 253° West 393 452 34,000  Level FlightAware
04:48PM 45.0610 -76.3310 242° Southwest 384 442 34,000  Level FlightAware
04:49PM 45.0300 -76.4100 241° Southwest 385 443 34,000  Level FlightAware
04:50PM 44.9970 -76.4920 240° Southwest 386 444 34,000  Level FlightAware
04:50PM 44.9700 -76.5610 241° Southwest 387 445 34,000  Level FlightAware
04:51PM 44.9370 -76.6460 241° Southwest 388 447 34,000  Level FlightAware
04:51PM 44.9050 -76.7240 240° Southwest 390 449 34,000  Level FlightAware
04:52PM 44.8710 -76.8110 241° Southwest 391 450 34,000  Level FlightAware
04:53PM 44.8360 -76.8970 240° Southwest 391 450 34,000  Level FlightAware
04:53PM 44.8050 -76.9740 240° Southwest 390 449 34,000  Level FlightAware
04:54PM 44.7680 -77.0660 240° Southwest 386 444 34,000  Level FlightAware
04:54PM 44.7390 -77.1370 240° Southwest 385 443 34,000  Level FlightAware
04:55PM 44.7020 -77.2280 240° Southwest 383 441 34,000  Level FlightAware
04:56PM 44.6670 -77.3140 240° Southwest 382 440 34,000 -120 Level FlightAware
04:56PM 44.6350 -77.3930 240° Southwest 378 435 33,900 -660 Descending FlightAware
04:57PM 44.6070 -77.4620 240° Southwest 378 435 33,300 -1,320 Descending FlightAware
04:58PM 44.5730 -77.5430 240° Southwest 382 440 32,400 -1,500 Descending FlightAware
04:58PM 44.5430 -77.6170 240° Southwest 391 450 31,500 -1,560 Descending FlightAware
04:59PM 44.5080 -77.7010 240° Southwest 385 443 30,500 -1,560 Descending FlightAware
04:59PM 44.4790 -77.7710 240° Southwest 379 436 29,600 -1,680 Descending FlightAware
05:00PM 44.4490 -77.8440 240° Southwest 375 432 28,600 -1,680 Descending FlightAware
05:01PM 44.4160 -77.9230 240° Southwest 368 423 27,700 -1,800 Descending FlightAware
05:01PM 44.3870 -77.9930 240° Southwest 362 417 26,500 -2,160 Descending FlightAware
05:02PM 44.3600 -78.0580 240° Southwest 358 412 25,200 -2,520 Descending FlightAware
05:02PM 44.3300 -78.1270 239° Southwest 353 406 23,700 -2,580 Descending FlightAware
05:03PM 44.3010 -78.1980 240° Southwest 350 403 22,200 -2,580 Descending FlightAware
05:03PM 44.2700 -78.2700 239° Southwest 346 398 20,700 -2,400 Descending FlightAware
05:04PM 44.2390 -78.3440 240° Southwest 342 394 19,200 -2,280 Descending FlightAware
05:05PM 44.2120 -78.4070 239° Southwest 340 391 17,900 -2,340 Descending FlightAware
05:05PM 44.1820 -78.4760 239° Southwest 336 387 16,500 -2,340 Descending FlightAware
05:06PM 44.1550 -78.5400 240° Southwest 333 383 15,200 -2,280 Descending FlightAware
05:06PM 44.1280 -78.6050 240° Southwest 330 380 13,900 -2,280 Descending FlightAware
05:07PM 44.1010 -78.6680 239° Southwest 327 376 12,600 -2,160 Descending FlightAware
05:08PM 44.0730 -78.7330 239° Southwest 323 372 11,400 -1,800 Descending FlightAware
05:08PM 44.0460 -78.7940 238° Southwest 312 359 10,500 -1,140 Descending FlightAware
05:09PM 44.0160 -78.8440 230° Southwest 288 331 10,100 -1,020 Descending FlightAware
05:09PM 44.0020 -78.8650 227° Southwest 273 314 9,700 -1,740 Descending FlightAware
05:10PM 43.9790 -78.8990 227° Southwest 265 305 8,800 -1,800 Descending FlightAware
05:10PM 43.9700 -78.9130 228° Southwest 263 303 8,500 -1,200 Descending FlightAware
05:10PM 43.9470 -78.9480 228° Southwest 247 284 8,000 -960 Descending FlightAware
05:10PM 43.9350 -78.9660 227° Southwest 241 277 7,800 -1,080 Descending FlightAware
05:11PM 43.9190 -78.9900 227° Southwest 237 273 7,400 -780 Descending FlightAware
05:11PM 43.9060 -79.0080 225° Southwest 234 269 7,300 -600 Descending FlightAware
05:11PM 43.8890 -79.0340 228° Southwest 235 270 7,000 -420 Descending FlightAware
05:12PM 43.8750 -79.0610 234° Southwest 231 266 7,000  Level FlightAware
05:12PM 43.8730 -79.0720 256° West 230 265 7,000  Level FlightAware
05:12PM 43.8760 -79.1110 276° West 230 265 7,000 -180 Level FlightAware
05:13PM 43.8790 -79.1360 279° West 227 261 6,900 -720 Descending FlightAware
05:13PM 43.8820 -79.1640 278° West 227 261 6,600 -1,260 Descending FlightAware
05:13PM 43.8870 -79.2010 281° West 228 262 6,000 -1,200 Descending FlightAware
05:14PM 43.8900 -79.2210 282° West 229 264 5,800 -1,080 Descending FlightAware
05:14PM 43.8930 -79.2510 278° West 227 261 5,400 -1,200 Descending FlightAware
05:14PM 43.8960 -79.2720 281° West 224 258 5,100 -720 Descending FlightAware
05:15PM 43.9000 -79.2990 282° West 208 239 5,000 -180 Descending FlightAware
05:15PM 43.9010 -79.3190 274° West 199 229 5,000 120 Level FlightAware
05:15PM 43.8900 -79.3480 242° Southwest 211 243 5,100  Climbing FlightAware
05:16PM 43.8810 -79.3630 230° Southwest 208 239 5,000 -180 Descending FlightAware
05:16PM 43.8640 -79.3870 226° Southwest 204 235 5,000  Level FlightAware
05:16PM 43.8510 -79.4060 227° Southwest 206 237 5,000 -360 Level FlightAware
05:17PM 43.8420 -79.4190 226° Southwest 208 239 4,800 -1,080 Descending FlightAware
05:17PM 43.8280 -79.4400 227° Southwest 205 236 4,400 -1,200 Descending FlightAware
05:17PM 43.8190 -79.4530 226° Southwest 201 231 4,100 -1,200 Descending FlightAware
05:18PM 43.8030 -79.4770 227° Southwest 193 222 3,600 -1,080 Descending FlightAware
05:18PM 43.7880 -79.4990 227° Southwest 192 221 3,200 -1,080 Descending FlightAware
05:18PM 43.7820 -79.5080 227° Southwest 190 219 3,000 -1,080 Descending FlightAware
05:19PM 43.7670 -79.5300 227° Southwest 183 211 2,600 -960 Descending FlightAware
05:19PM 43.7550 -79.5460 224° Southwest 178 205 2,300 -900 Descending FlightAware
05:19PM 43.7440 -79.5620 226° Southwest 161 185 2,000 -780 Descending FlightAware
05:20PM 43.7350 -79.5760 228° Southwest 153 176 1,800 -720 Descending FlightAware
05:20PM 43.7320 -79.5800 224° Southwest 152 175 1,700 -900 Descending FlightAware
05:20PM 43.7180 -79.6010 227° Southwest 145 167 1,300 -720 Descending FlightAware
05:20PM 43.7090 -79.6140 226° Southwest 140 161 1,100 -720 Descending FlightAware
05:21PM 43.6990 -79.6280 225° Southwest 143 165 800 -780 Descending FlightAware
05:21PM 43.6900 -79.6410 226° Southwest 144 166 600 -300 Descending FlightAware
05:22PM 43.6800 -79.6560 227° Southwest 144 166 600  Level FlightAware
05:25PM 43.6890 -79.1330 88° East 600  Level FlightAware
05:27PM 43.6820 -79.1240 90° East 600  Level FlightAware
05:27PM 43.6810 -79.1100 96° East 157 181 600  Level FlightAware
05:28PM 43.6800 -79.1140 277° West 62 71 600  Level FlightAware
05:29PM 43.6800 -79.1000 90° East 100 115 600  Level FlightAware